Time;durP1;ratioP1;P1;durP2;ratioP2;P2;SDS_P1;SDS_P2;PMS_P1;PMS_P2;Temp;Humidity;BMP_temperature;BMP_pressure;BME280_temperature;BME280_humidity;BME280_pressure;Samples;Min_cycle;Max_cycle;Signal;HPM_P1;HPM_P2
2022/01/19 00:00:50;;;;;;;39.90;19.73;;;4.10;99.90;;;;;;5136512;27;20043;-77
2022/01/19 00:03:16;;;;;;;39.88;18.88;;;4.00;99.90;;;;;;5117892;27;20046;-77
2022/01/19 00:05:42;;;;;;;40.20;19.48;;;4.10;99.90;;;;;;5115229;27;20122;-78
2022/01/19 00:08:08;;;;;;;41.42;19.20;;;4.00;99.90;;;;;;5117558;27;20061;-78
2022/01/19 00:10:33;;;;;;;37.92;17.92;;;4.00;99.90;;;;;;5117704;27;20047;-77
2022/01/19 00:13:00;;;;;;;34.25;17.02;;;4.00;99.90;;;;;;5116447;27;20031;-78
2022/01/19 00:15:27;;;;;;;36.65;16.70;;;4.00;99.90;;;;;;5108407;28;20043;-78
2022/01/19 00:17:58;;;;;;;40.50;16.38;;;4.00;99.90;;;;;;5096819;28;20492;-77
2022/01/19 00:20:26;;;;;;;39.72;18.90;;;4.00;99.90;;;;;;5109356;27;20039;-78
2022/01/19 00:22:53;;;;;;;41.25;18.08;;;4.00;99.90;;;;;;5117405;27;20035;-77
2022/01/19 00:25:20;;;;;;;38.88;17.67;;;4.00;99.90;;;;;;5117100;27;20043;-77
2022/01/19 00:27:45;;;;;;;41.42;17.88;;;4.00;99.90;;;;;;5117466;27;20087;-78
2022/01/19 00:30:11;;;;;;;39.92;17.38;;;3.90;99.90;;;;;;5116708;27;20050;-77
2022/01/19 00:32:37;;;;;;;41.75;19.63;;;3.90;99.90;;;;;;5117142;27;20042;-77
2022/01/19 00:35:04;;;;;;;44.72;19.83;;;4.00;99.90;;;;;;5116938;27;20035;-77
2022/01/19 00:37:30;;;;;;;41.40;18.88;;;3.90;99.90;;;;;;5100003;27;20047;-77
2022/01/19 00:39:56;;;;;;;47.22;19.48;;;4.00;99.90;;;;;;5117113;27;20057;-78
2022/01/19 00:42:22;;;;;;;45.35;20.73;;;3.90;99.90;;;;;;5117042;27;20046;-77
2022/01/19 00:44:47;;;;;;;44.67;21.05;;;4.00;99.90;;;;;;5116984;27;20033;-77
2022/01/19 00:47:14;;;;;;;48.90;21.63;;;3.90;99.90;;;;;;5116786;27;20462;-78
2022/01/19 00:49:42;;;;;;;44.13;20.23;;;3.90;99.90;;;;;;5116961;27;20047;-77
2022/01/19 00:52:08;;;;;;;42.25;20.58;;;3.90;99.90;;;;;;5116730;27;20061;-76
2022/01/19 00:54:33;;;;;;;42.20;20.73;;;3.90;99.90;;;;;;5099338;27;20560;-78
2022/01/19 00:56:59;;;;;;;48.67;23.48;;;3.90;99.90;;;;;;5116872;27;20042;-77
2022/01/19 00:59:24;;;;;;;51.60;23.33;;;3.90;99.90;;;;;;5116728;27;20031;-78
2022/01/19 01:01:50;;;;;;;50.08;22.65;;;3.80;99.90;;;;;;5116743;27;20079;-76
2022/01/19 01:04:15;;;;;;;56.55;24.85;;;3.90;99.90;;;;;;5116447;27;20073;-78
2022/01/19 01:06:41;;;;;;;60.13;25.17;;;3.90;99.90;;;;;;5116833;27;20065;-78
2022/01/19 01:09:06;;;;;;;51.38;24.67;;;3.90;99.90;;;;;;5116696;27;20054;-77
2022/01/19 01:11:37;;;;;;;56.45;24.33;;;3.90;99.90;;;;;;5116304;27;20057;-77
2022/01/19 01:16:36;;;;;;;55.20;25.08;;;3.90;99.90;;;;;;5097372;27;20130;-78
2022/01/19 01:19:05;;;;;;;50.20;23.98;;;3.90;99.90;;;;;;5108456;27;20039;-78
2022/01/19 01:21:31;;;;;;;56.10;24.35;;;3.90;99.90;;;;;;5099240;27;20043;-78
2022/01/19 01:23:57;;;;;;;54.65;23.88;;;3.90;99.90;;;;;;5109452;27;20055;-77
2022/01/19 01:26:23;;;;;;;55.55;24.83;;;3.90;99.90;;;;;;5102170;27;20047;-78
2022/01/19 01:28:48;;;;;;;59.03;25.08;;;3.90;99.90;;;;;;5107295;27;20532;-77
2022/01/19 01:31:14;;;;;;;57.95;25.55;;;3.90;99.90;;;;;;5096567;27;20083;-78
2022/01/19 01:33:40;;;;;;;57.28;24.48;;;3.90;99.90;;;;;;5109596;27;20404;-77
2022/01/19 01:36:07;;;;;;;58.60;23.98;;;3.90;99.90;;;;;;5104071;27;20046;-78
2022/01/19 01:38:33;;;;;;;52.38;22.55;;;3.90;99.90;;;;;;5106160;27;20036;-77
2022/01/19 01:40:59;;;;;;;64.72;25.70;;;3.90;99.90;;;;;;5113227;27;20686;-78
2022/01/19 01:43:25;;;;;;;65.80;24.95;;;3.80;99.90;;;;;;5102177;27;20035;-77
2022/01/19 01:45:57;;;;;;;55.85;22.98;;;3.80;99.90;;;;;;5095505;28;20059;-77
2022/01/19 01:48:25;;;;;;;66.45;26.77;;;3.80;99.90;;;;;;5095075;28;20039;-78
2022/01/19 01:53:35;;;;;;;;;;;3.80;99.90;;;;;;5098126;27;20048;-78
2022/01/19 01:56:04;;;;;;;53.38;23.45;;;3.90;99.90;;;;;;5112500;27;20300;-78
2022/01/19 01:58:35;;;;;;;61.97;24.33;;;3.90;99.90;;;;;;5107126;28;20123;-77
2022/01/19 02:01:01;;;;;;;62.08;24.55;;;3.90;99.90;;;;;;5097221;27;20085;-78
2022/01/19 02:03:27;;;;;;;61.80;24.58;;;3.80;99.90;;;;;;5106446;27;20446;-78
2022/01/19 02:08:37;;;;;;;67.13;25.35;;;3.90;99.90;;;;;;5100850;27;20070;-78
2022/01/19 02:16:34;;;;;;;66.28;26.92;;;4.00;99.90;;;;;;5097843;28;20089;-77
2022/01/19 02:22:00;;;;;;;63.80;27.05;;;4.00;99.90;;;;;;5095535;28;20651;-78
2022/01/19 02:24:31;;;;;;;49.22;21.35;;;4.00;99.90;;;;;;5103559;27;20081;-77
2022/01/19 02:27:09;;;;;;;57.40;24.95;;;4.00;99.90;;;;;;5102102;28;20583;-78
2022/01/19 02:40:29;;;;;;;73.18;28.02;;;4.10;99.90;;;;;;5104524;27;20126;-78
2022/01/19 02:46:40;;;;;;;72.05;29.65;;;4.10;99.90;;;;;;5100316;27;20047;-78
2022/01/19 02:51:09;;;;;;;;;;;4.10;99.90;;;;;;5099322;28;20042;-78
2022/01/19 02:53:36;;;;;;;71.70;27.70;;;4.10;99.90;;;;;;5111454;27;19916;-78
2022/01/19 02:56:07;;;;;;;65.47;26.70;;;4.10;99.90;;;;;;5084865;28;20050;-77
2022/01/19 02:58:38;;;;;;;71.60;27.25;;;4.10;99.90;;;;;;5105623;27;20134;-78
2022/01/19 03:09:16;;;;;;;74.40;25.20;;;4.00;99.90;;;;;;5093970;28;20323;-77
2022/01/19 03:11:42;;;;;;;76.10;25.50;;;4.00;99.90;;;;;;5106454;27;20031;-79
2022/01/19 03:14:08;;;;;;;58.97;23.58;;;4.00;99.90;;;;;;5111992;27;20705;-79
2022/01/19 03:16:34;;;;;;;59.47;23.73;;;3.90;99.90;;;;;;5101163;27;20118;-77
2022/01/19 03:19:00;;;;;;;67.80;25.10;;;3.90;99.90;;;;;;5111298;27;20427;-78
2022/01/19 03:21:26;;;;;;;68.95;23.95;;;3.90;99.90;;;;;;5096331;28;20139;-77
2022/01/19 03:23:51;;;;;;;73.25;24.38;;;3.80;99.90;;;;;;5094745;28;20465;-78
2022/01/19 03:26:17;;;;;;;85.93;27.25;;;3.80;99.90;;;;;;5093915;28;20027;-78
2022/01/19 03:28:42;;;;;;;75.80;26.25;;;3.80;99.90;;;;;;5110446;28;20038;-78
2022/01/19 03:31:08;;;;;;;81.50;26.35;;;3.80;99.90;;;;;;5107578;28;20032;-78
2022/01/19 03:33:34;;;;;;;79.80;25.45;;;3.90;99.90;;;;;;5109613;28;20088;-78
2022/01/19 03:35:59;;;;;;;64.80;24.02;;;3.80;99.90;;;;;;5084352;28;20049;-78
2022/01/19 03:38:25;;;;;;;74.22;25.08;;;3.80;99.90;;;;;;5116303;28;20386;-78
2022/01/19 03:40:51;;;;;;;71.90;24.77;;;3.80;99.90;;;;;;5093184;28;20042;-77
2022/01/19 03:43:17;;;;;;;67.35;26.10;;;3.80;99.90;;;;;;5125173;28;20043;-78
2022/01/19 03:45:51;;;;;;;67.75;25.33;;;3.80;99.90;;;;;;5093451;28;20177;-78
2022/01/19 03:50:54;;;;;;;65.70;24.35;;;3.80;99.90;;;;;;5094860;28;20561;-79
2022/01/19 03:53:20;;;;;;;64.07;24.95;;;3.80;99.90;;;;;;5096661;28;20035;-78
2022/01/19 03:55:45;;;;;;;69.63;25.17;;;3.80;99.90;;;;;;5112981;28;20125;-77
2022/01/19 03:58:11;;;;;;;68.57;25.55;;;3.70;99.90;;;;;;5107608;28;20043;-78
2022/01/19 04:00:42;;;;;;;73.28;26.23;;;3.70;99.90;;;;;;5077707;28;20109;-78
2022/01/19 04:03:10;;;;;;;70.15;25.30;;;3.70;99.90;;;;;;5112560;28;20405;-77
2022/01/19 04:05:42;;;;;;;68.07;25.00;;;3.70;99.90;;;;;;5104196;28;20514;-78
2022/01/19 04:08:09;;;;;;;78.57;26.73;;;3.60;99.90;;;;;;5108910;28;20410;-77
2022/01/19 04:10:34;;;;;;;72.80;25.05;;;3.60;99.90;;;;;;5100681;28;20093;-77
2022/01/19 04:13:25;;;;;;;73.30;26.35;;;3.70;99.90;;;;;;5094415;28;20039;-78
2022/01/19 04:15:51;;;;;;;71.28;25.85;;;3.60;99.90;;;;;;5094394;28;20059;-78
2022/01/19 04:18:17;;;;;;;81.70;27.23;;;3.60;99.90;;;;;;5099373;28;20479;-78
2022/01/19 04:20:48;;;;;;;68.53;26.95;;;3.60;99.90;;;;;;5093201;28;20564;-78
2022/01/19 04:23:14;;;;;;;66.05;26.73;;;3.60;99.90;;;;;;5086414;28;20038;-78
2022/01/19 04:25:39;;;;;;;62.60;26.38;;;3.60;99.90;;;;;;5091248;28;20027;-78
2022/01/19 04:28:07;;;;;;;59.47;24.88;;;3.60;99.90;;;;;;5104130;28;20111;-77
2022/01/19 04:30:34;;;;;;;67.90;26.15;;;3.60;99.90;;;;;;5113475;28;20043;-78
2022/01/19 04:33:07;;;;;;;71.53;26.90;;;3.60;99.90;;;;;;5111768;28;20493;-78
2022/01/19 04:35:44;;;;;;;61.08;26.65;;;3.70;99.90;;;;;;5104899;28;20447;-78
2022/01/19 04:47:41;;;;;;;63.85;25.85;;;3.60;99.90;;;;;;5095105;28;20177;-77
2022/01/19 05:05:28;;;;;;;61.72;25.80;;;3.60;99.90;;;;;;5106312;28;20073;-78
2022/01/19 05:07:59;;;;;;;67.22;27.42;;;3.70;99.90;;;;;;5115834;27;20043;-78
2022/01/19 05:15:51;;;;;;;67.28;27.60;;;3.70;99.90;;;;;;5116100;27;20134;-78
2022/01/19 05:18:18;;;;;;;59.30;25.15;;;3.60;99.90;;;;;;5116862;27;20122;-78
2022/01/19 05:20:45;;;;;;;55.85;25.02;;;3.70;99.90;;;;;;5115382;27;20046;-77
2022/01/19 05:23:11;;;;;;;65.88;25.30;;;3.60;99.90;;;;;;5116608;27;20050;-78
2022/01/19 05:25:37;;;;;;;59.92;26.30;;;3.70;99.90;;;;;;5116741;27;20043;-78
2022/01/19 05:28:04;;;;;;;56.05;25.73;;;3.60;99.90;;;;;;5116182;27;20046;-77
2022/01/19 05:30:30;;;;;;;60.92;26.58;;;3.60;99.90;;;;;;5116577;27;20043;-78
2022/01/19 05:32:55;;;;;;;61.75;27.88;;;3.60;99.90;;;;;;5117717;27;20039;-78
2022/01/19 05:35:21;;;;;;;58.65;26.08;;;3.60;99.90;;;;;;5116448;27;20138;-78
2022/01/19 05:37:46;;;;;;;56.83;25.92;;;3.60;99.90;;;;;;5116186;27;20064;-78
2022/01/19 05:40:14;;;;;;;59.95;26.27;;;3.70;99.90;;;;;;5116576;27;20043;-78
2022/01/19 05:42:40;;;;;;;59.85;25.55;;;3.70;99.90;;;;;;5099728;27;20405;-78
2022/01/19 05:45:06;;;;;;;55.40;25.73;;;3.60;99.90;;;;;;5116235;27;20046;-78
2022/01/19 05:47:32;;;;;;;63.42;25.55;;;3.70;99.90;;;;;;5116147;27;20046;-78
2022/01/19 05:49:58;;;;;;;53.95;25.42;;;3.60;99.90;;;;;;5116212;27;20039;-78
2022/01/19 05:52:23;;;;;;;57.10;26.17;;;3.60;99.90;;;;;;5115811;27;20043;-78
2022/01/19 05:54:49;;;;;;;57.10;24.45;;;3.60;99.90;;;;;;5115052;27;20397;-78
2022/01/19 05:57:14;;;;;;;52.25;23.88;;;3.60;99.90;;;;;;5115531;27;20063;-78
2022/01/19 05:59:40;;;;;;;52.03;24.30;;;3.60;99.90;;;;;;5116031;27;20043;-79
2022/01/19 06:02:06;;;;;;;57.50;25.95;;;3.60;99.90;;;;;;5116089;27;20043;-78
2022/01/19 06:04:32;;;;;;;53.72;25.50;;;3.50;99.90;;;;;;5115578;27;20334;-79
2022/01/19 06:06:58;;;;;;;56.53;26.80;;;3.50;99.90;;;;;;5114602;27;20084;-81
2022/01/19 06:12:04;;;;;;;61.65;27.17;;;3.50;99.90;;;;;;5115716;27;20126;-78
2022/01/19 06:14:31;;;;;;;56.60;25.77;;;3.60;99.90;;;;;;5104733;27;20039;-78
2022/01/19 06:16:57;;;;;;;54.03;26.15;;;3.50;99.90;;;;;;5099153;27;20036;-78
2022/01/19 06:19:22;;;;;;;56.38;27.15;;;3.50;99.90;;;;;;5116333;27;20042;-79
2022/01/19 06:21:48;;;;;;;51.47;24.95;;;3.50;99.90;;;;;;5116012;27;20027;-79
2022/01/19 06:24:13;;;;;;;54.03;25.90;;;3.50;99.90;;;;;;5115627;27;20038;-78
2022/01/19 06:26:39;;;;;;;56.33;26.30;;;3.50;99.90;;;;;;5098816;27;20122;-78
2022/01/19 06:29:05;;;;;;;53.85;25.35;;;3.50;99.90;;;;;;5116026;27;20043;-78
2022/01/19 06:31:31;;;;;;;55.40;26.95;;;3.50;99.90;;;;;;5098374;27;20058;-78
2022/01/19 06:33:56;;;;;;;54.88;25.13;;;3.50;99.90;;;;;;5098548;27;20035;-81
2022/01/19 06:36:22;;;;;;;56.88;25.85;;;3.50;99.90;;;;;;5115745;27;20046;-78
2022/01/19 06:38:48;;;;;;;59.90;26.60;;;3.50;99.90;;;;;;5115766;27;20035;-78
2022/01/19 06:41:13;;;;;;;50.20;25.05;;;3.40;99.90;;;;;;5115030;27;20054;-78
2022/01/19 06:43:39;;;;;;;50.33;24.27;;;3.50;99.90;;;;;;5111542;27;20377;-78
2022/01/19 06:46:05;;;;;;;59.30;25.90;;;3.50;99.90;;;;;;5114488;27;20118;-78
2022/01/19 06:48:31;;;;;;;51.88;24.90;;;3.50;99.90;;;;;;5096954;27;20128;-78
2022/01/19 06:50:57;;;;;;;52.53;24.02;;;3.50;99.90;;;;;;5115152;27;20066;-78
2022/01/19 06:53:22;;;;;;;52.30;25.65;;;3.50;99.90;;;;;;5097700;27;20058;-77
2022/01/19 06:55:48;;;;;;;54.55;25.20;;;3.50;99.90;;;;;;5114277;27;20035;-78
2022/01/19 06:58:13;;;;;;;52.97;25.85;;;3.50;99.90;;;;;;5113903;27;20035;-78
2022/01/19 07:00:39;;;;;;;58.85;26.55;;;3.50;99.90;;;;;;5114567;27;20050;-78
2022/01/19 07:03:05;;;;;;;50.97;24.98;;;3.50;99.90;;;;;;5114336;27;20118;-77
2022/01/19 07:05:31;;;;;;;60.10;26.30;;;3.50;99.90;;;;;;5114862;27;20031;-78
2022/01/19 07:07:57;;;;;;;52.38;24.48;;;3.40;99.90;;;;;;5098133;27;20049;-78
2022/01/19 07:10:24;;;;;;;48.90;24.55;;;3.50;99.90;;;;;;5114229;27;20058;-78
2022/01/19 07:12:50;;;;;;;48.90;23.35;;;3.40;99.90;;;;;;5115016;27;20092;-78
2022/01/19 07:15:16;;;;;;;57.22;25.20;;;3.40;99.90;;;;;;5113888;27;20059;-78
2022/01/19 07:17:42;;;;;;;52.42;25.08;;;3.50;99.90;;;;;;5111386;27;20057;-79
2022/01/19 07:20:08;;;;;;;49.95;25.33;;;3.40;99.90;;;;;;5114856;27;20070;-78
2022/01/19 07:22:34;;;;;;;54.45;25.17;;;3.50;99.90;;;;;;5109659;28;20032;-79
2022/01/19 07:25:00;;;;;;;56.05;25.58;;;3.40;99.90;;;;;;5118965;27;20032;-79
2022/01/19 07:27:26;;;;;;;56.65;27.10;;;3.50;99.90;;;;;;5103511;27;20047;-79
2022/01/19 07:29:51;;;;;;;52.67;25.80;;;3.40;99.90;;;;;;5101018;28;20394;-79
2022/01/19 07:32:17;;;;;;;52.70;25.80;;;3.50;99.90;;;;;;5127668;27;20297;-79
2022/01/19 07:34:43;;;;;;;58.67;27.70;;;3.50;99.90;;;;;;5097204;28;20054;-79
2022/01/19 07:37:09;;;;;;;57.10;26.85;;;3.50;99.90;;;;;;5092583;28;20039;-79
2022/01/19 07:39:34;;;;;;;54.10;27.08;;;3.50;99.90;;;;;;5104636;28;20055;-79
2022/01/19 07:42:00;;;;;;;53.42;25.42;;;3.50;99.90;;;;;;5094483;28;20034;-79
2022/01/19 07:44:26;;;;;;;54.72;26.08;;;3.50;99.90;;;;;;5097858;28;20054;-78
2022/01/19 07:46:51;;;;;;;55.03;24.23;;;3.50;99.90;;;;;;5095351;28;20040;-79
2022/01/19 07:49:18;;;;;;;51.55;24.98;;;3.50;99.90;;;;;;5102784;28;20035;-79
2022/01/19 07:51:43;;;;;;;56.20;26.25;;;3.50;99.90;;;;;;5111965;28;20503;-78
2022/01/19 07:54:09;;;;;;;52.53;24.73;;;3.50;99.90;;;;;;5111834;28;20031;-78
2022/01/19 07:56:35;;;;;;;57.42;26.17;;;3.60;99.90;;;;;;5111241;28;20122;-78
2022/01/19 07:59:00;;;;;;;60.78;27.33;;;3.60;99.90;;;;;;5124886;28;20110;-78
2022/01/19 08:01:30;;;;;;;60.60;26.50;;;3.60;99.90;;;;;;5113117;28;20524;-79
2022/01/19 08:03:57;;;;;;;53.70;25.90;;;3.60;99.90;;;;;;5109841;28;20069;-80
2022/01/19 08:06:22;;;;;;;61.40;26.45;;;3.60;99.90;;;;;;5102830;28;20024;-79
2022/01/19 08:08:48;;;;;;;64.15;28.90;;;3.60;99.90;;;;;;5109167;28;20445;-79
2022/01/19 08:11:14;;;;;;;56.00;25.92;;;3.60;99.90;;;;;;5098239;28;20035;-79
2022/01/19 08:13:39;;;;;;;61.00;27.00;;;3.70;99.90;;;;;;5092609;28;20057;-79
2022/01/19 08:16:05;;;;;;;52.78;25.95;;;3.70;99.90;;;;;;5106074;28;20038;-78
2022/01/19 08:18:30;;;;;;;60.88;28.50;;;3.70;99.90;;;;;;5108082;28;20133;-80
2022/01/19 08:20:56;;;;;;;68.35;28.95;;;3.70;99.90;;;;;;5116813;27;20051;-78
2022/01/19 08:23:22;;;;;;;64.63;28.45;;;3.80;99.90;;;;;;5117035;27;20050;-78
2022/01/19 08:25:47;;;;;;;63.75;28.73;;;3.80;99.90;;;;;;5117685;27;20035;-79
2022/01/19 08:28:13;;;;;;;61.53;28.65;;;3.80;99.90;;;;;;5119626;27;20334;-79
2022/01/19 08:30:38;;;;;;;75.55;30.20;;;3.80;99.90;;;;;;5118414;27;20054;-79
2022/01/19 08:33:04;;;;;;;65.03;29.73;;;3.90;99.90;;;;;;5118101;27;20047;-79
2022/01/19 08:35:30;;;;;;;61.67;29.50;;;3.90;99.90;;;;;;5117762;27;20123;-79
2022/01/19 08:37:55;;;;;;;65.07;29.95;;;3.90;99.90;;;;;;5117620;27;20339;-79
2022/01/19 08:40:26;;;;;;;64.53;29.92;;;3.90;99.90;;;;;;5117969;27;20035;-79
2022/01/19 08:42:52;;;;;;;63.78;28.38;;;3.90;99.90;;;;;;5117867;27;20062;-79
2022/01/19 08:45:18;;;;;;;68.93;30.50;;;4.00;99.90;;;;;;5117738;27;20046;-78
2022/01/19 08:47:46;;;;;;;61.22;30.08;;;4.00;99.90;;;;;;5110991;27;20042;-79
2022/01/19 08:50:14;;;;;;;57.55;29.83;;;4.00;99.90;;;;;;5125476;27;20136;-79
2022/01/19 08:52:40;;;;;;;61.92;28.48;;;4.00;99.90;;;;;;5098997;27;20043;-79
2022/01/19 08:55:06;;;;;;;63.60;29.60;;;4.00;99.90;;;;;;5117141;27;20042;-79
2022/01/19 08:57:32;;;;;;;60.25;26.73;;;4.10;99.90;;;;;;5101432;27;20034;-79
2022/01/19 08:59:57;;;;;;;61.38;29.40;;;4.10;99.90;;;;;;5116822;27;20453;-79
2022/01/19 09:02:23;;;;;;;63.92;30.42;;;4.20;99.90;;;;;;5101991;27;20031;-79
2022/01/19 09:04:49;;;;;;;62.45;30.63;;;4.20;99.90;;;;;;5115580;27;20542;-79
2022/01/19 09:07:15;;;;;;;62.80;30.27;;;4.20;99.90;;;;;;5111336;27;20114;-78
2022/01/19 09:09:41;;;;;;;63.40;31.00;;;4.20;99.90;;;;;;5096930;28;20547;-79
2022/01/19 09:12:07;;;;;;;72.55;33.45;;;4.30;99.90;;;;;;5102723;27;20039;-79
2022/01/19 09:14:32;;;;;;;67.82;32.13;;;4.30;99.90;;;;;;5105692;28;20032;-79
2022/01/19 09:16:58;;;;;;;65.05;31.02;;;4.30;99.90;;;;;;5101587;27;20515;-79
2022/01/19 09:19:24;;;;;;;61.38;29.60;;;4.40;99.90;;;;;;5124557;27;20058;-78
2022/01/19 09:21:50;;;;;;;68.90;31.15;;;4.40;99.90;;;;;;5124549;27;20481;-79
2022/01/19 09:24:17;;;;;;;71.97;32.58;;;4.40;99.90;;;;;;5111276;27;20455;-79
2022/01/19 09:26:44;;;;;;;64.20;31.20;;;4.40;99.90;;;;;;5099729;27;20170;-79
2022/01/19 09:29:09;;;;;;;61.85;31.65;;;4.40;99.90;;;;;;5117156;27;20046;-79
2022/01/19 09:31:35;;;;;;;70.50;32.65;;;4.50;99.90;;;;;;5116663;27;20031;-78
2022/01/19 09:34:21;;;;;;;64.82;33.15;;;4.50;99.90;;;;;;5116485;27;20061;-79
2022/01/19 09:36:47;;;;;;;64.55;31.85;;;4.50;99.90;;;;;;5110707;27;20043;-78
2022/01/19 09:39:22;;;;;;;61.55;29.40;;;4.50;99.90;;;;;;5116506;27;20121;-78
2022/01/19 09:41:49;;;;;;;66.43;31.67;;;4.50;99.90;;;;;;5109588;27;20152;-79
2022/01/19 09:44:17;;;;;;;62.22;30.30;;;4.50;99.90;;;;;;5114313;27;20027;-78
2022/01/19 09:46:43;;;;;;;65.75;31.35;;;4.50;99.90;;;;;;5091962;27;20057;-78
2022/01/19 09:49:09;;;;;;;64.95;31.42;;;4.50;99.90;;;;;;5128066;27;20031;-79
2022/01/19 09:51:35;;;;;;;67.40;31.35;;;4.50;99.90;;;;;;5115985;27;20045;-79
2022/01/19 09:54:01;;;;;;;60.03;30.63;;;4.50;99.90;;;;;;5115548;27;20129;-78
2022/01/19 09:56:27;;;;;;;64.50;32.35;;;4.50;99.90;;;;;;5116475;27;20035;-79
2022/01/19 09:58:53;;;;;;;65.38;31.08;;;4.50;99.90;;;;;;5116393;27;20042;-78
2022/01/19 10:01:21;;;;;;;59.55;32.67;;;4.50;99.90;;;;;;5100492;28;20476;-79
2022/01/19 10:03:46;;;;;;;67.22;32.63;;;4.50;99.90;;;;;;5109861;27;20070;-78
2022/01/19 10:06:22;;;;;;;65.25;32.45;;;4.50;99.90;;;;;;5115743;27;20058;-78
2022/01/19 10:08:56;;;;;;;62.90;31.00;;;4.50;99.90;;;;;;5106924;28;20034;-78
2022/01/19 10:16:59;;;;;;;70.45;34.88;;;4.50;99.90;;;;;;5100178;28;20127;-78
2022/01/19 10:19:28;;;;;;;66.15;33.03;;;4.40;99.90;;;;;;5099899;28;20123;-78
2022/01/19 10:21:56;;;;;;;65.20;33.40;;;4.40;99.90;;;;;;5110627;27;20036;-78
2022/01/19 10:24:52;;;;;;;63.97;32.80;;;4.40;99.90;;;;;;5086047;27;20085;-78
2022/01/19 10:27:38;;;;;;;66.22;33.33;;;4.40;99.90;;;;;;5099246;27;20071;-78
2022/01/19 10:30:04;;;;;;;67.70;33.72;;;4.40;99.90;;;;;;5114261;27;20087;-79
2022/01/19 10:32:40;;;;;;;66.70;34.72;;;4.40;99.90;;;;;;5104277;28;20096;-78
2022/01/19 10:35:23;;;;;;;79.03;36.83;;;4.40;99.90;;;;;;5097356;27;20039;-78
2022/01/19 10:38:15;;;;;;;62.95;31.10;;;4.40;99.90;;;;;;5097426;27;20116;-78
2022/01/19 10:40:45;;;;;;;74.65;35.67;;;4.40;99.90;;;;;;5098750;27;20051;-78
2022/01/19 10:43:31;;;;;;;69.07;35.55;;;4.40;99.90;;;;;;5104817;27;20031;-78
2022/01/19 10:46:00;;;;;;;66.50;35.75;;;4.50;99.90;;;;;;5082353;28;20429;-78
2022/01/19 10:48:33;;;;;;;68.93;35.17;;;4.50;99.90;;;;;;5078978;27;20060;-78
2022/01/19 10:51:15;;;;;;;65.20;33.90;;;4.50;99.90;;;;;;5109650;27;20040;-78
2022/01/19 10:53:48;;;;;;;67.40;34.50;;;4.50;99.90;;;;;;5102148;28;20039;-78
2022/01/19 10:56:25;;;;;;;70.70;35.92;;;4.50;99.90;;;;;;5106278;27;20039;-78
2022/01/19 10:59:05;;;;;;;67.70;34.65;;;4.50;99.90;;;;;;5113593;27;20039;-78
2022/01/19 11:01:38;;;;;;;67.93;35.80;;;4.50;99.90;;;;;;5104077;28;20032;-78
2022/01/19 11:04:40;;;;;;;73.95;35.95;;;4.50;99.90;;;;;;5106680;27;20119;-78
2022/01/19 11:07:17;;;;;;;63.95;34.15;;;4.50;99.90;;;;;;5049081;28;20045;-78
2022/01/19 11:09:45;;;;;;;65.28;34.78;;;4.60;99.90;;;;;;5072153;28;20040;-78
2022/01/19 11:12:16;;;;;;;67.07;36.95;;;4.60;99.90;;;;;;5111623;27;20107;-78
2022/01/19 11:14:43;;;;;;;70.13;36.65;;;4.60;99.90;;;;;;5110536;27;20084;-77
2022/01/19 11:17:09;;;;;;;65.93;35.95;;;4.70;99.90;;;;;;5105956;28;20040;-78
2022/01/19 11:19:40;;;;;;;68.43;36.70;;;4.70;99.90;;;;;;5107178;27;20099;-78
2022/01/19 11:22:15;;;;;;;67.80;37.45;;;4.70;99.90;;;;;;5100010;27;20109;-78
2022/01/19 11:25:10;;;;;;;73.63;36.75;;;4.80;99.90;;;;;;5109936;27;20130;-78
2022/01/19 11:27:47;;;;;;;;;;;4.80;99.90;;;;;;5099134;27;20043;-78
2022/01/19 11:30:20;;;;;;;62.42;33.38;;;4.80;99.90;;;;;;5114092;27;19922;-77
2022/01/19 11:33:09;;;;;;;76.07;39.70;;;4.90;99.90;;;;;;5079780;28;20397;-78
2022/01/19 11:35:35;;;;;;;73.70;38.60;;;5.00;99.90;;;;;;5111712;27;20070;-78
2022/01/19 11:38:41;;;;;;;78.07;38.28;;;5.10;99.90;;;;;;5110779;28;20486;-78
2022/01/19 11:41:07;;;;;;;66.53;37.08;;;5.20;99.90;;;;;;5105935;28;20504;-77
2022/01/19 11:43:33;;;;;;;64.55;36.90;;;5.20;99.90;;;;;;5113807;28;20039;-78
2022/01/19 11:46:02;;;;;;;69.43;36.05;;;5.30;99.90;;;;;;5098322;28;20040;-78
2022/01/19 11:48:32;;;;;;;68.38;37.90;;;5.40;99.90;;;;;;5094864;28;20124;-77
2022/01/19 11:51:28;;;;;;;73.45;38.83;;;5.40;99.90;;;;;;5106000;28;20082;-78
2022/01/19 11:54:09;;;;;;;71.28;37.50;;;5.50;99.90;;;;;;5092323;27;20051;-78
2022/01/19 11:57:04;;;;;;;72.28;37.90;;;5.50;99.90;;;;;;5099119;28;20168;-78
2022/01/19 11:59:31;;;;;;;71.85;38.03;;;5.50;99.90;;;;;;5106707;27;20047;-78
2022/01/19 12:02:26;;;;;;;74.38;38.35;;;5.50;99.90;;;;;;5115733;27;20047;-78
2022/01/19 12:04:58;;;;;;;70.80;37.45;;;5.50;99.90;;;;;;5109143;27;20043;-78
2022/01/19 12:07:48;;;;;;;71.85;37.03;;;5.50;99.90;;;;;;5104524;27;20081;-78
2022/01/19 12:10:44;;;;;;;77.55;36.45;;;5.50;99.90;;;;;;5118115;27;20047;-78
2022/01/19 12:16:37;;;;;;;71.85;35.00;;;5.50;99.90;;;;;;5111072;27;20483;-77
2022/01/19 12:19:06;;;;;;;68.47;36.35;;;5.40;99.90;;;;;;5121971;27;20382;-78
2022/01/19 12:21:31;;;;;;;70.05;35.78;;;5.40;99.90;;;;;;5109277;27;20039;-78
2022/01/19 12:24:29;;;;;;;72.90;35.42;;;5.40;99.90;;;;;;5116968;27;20580;-78
2022/01/19 12:27:15;;;;;;;71.05;35.75;;;5.30;99.90;;;;;;5107481;27;20046;-78
2022/01/19 12:29:52;;;;;;;71.20;34.45;;;5.30;99.90;;;;;;5107824;28;20051;-78
2022/01/19 12:32:18;;;;;;;73.30;34.85;;;5.30;99.90;;;;;;5108912;27;20063;-77
2022/01/19 12:34:49;;;;;;;66.85;33.55;;;5.30;99.90;;;;;;5113021;27;20127;-78
2022/01/19 12:37:44;;;;;;;63.95;32.45;;;5.20;99.90;;;;;;5116634;27;20043;-79
2022/01/19 12:40:19;;;;;;;65.10;33.42;;;5.20;99.90;;;;;;5086064;27;20036;-78
2022/01/19 12:43:13;;;;;;;66.80;34.17;;;5.30;99.90;;;;;;5113481;28;20412;-77
2022/01/19 12:45:43;;;;;;;70.22;34.67;;;5.30;99.90;;;;;;5094755;27;20104;-78
2022/01/19 12:48:08;;;;;;;71.20;35.78;;;5.30;99.90;;;;;;5116362;28;20051;-78
2022/01/19 12:50:42;;;;;;;64.10;33.85;;;5.30;99.90;;;;;;5113347;28;20416;-78
2022/01/19 12:53:10;;;;;;;66.57;33.72;;;5.20;99.90;;;;;;5110087;28;20051;-77
2022/01/19 12:55:38;;;;;;;72.35;35.63;;;5.20;99.90;;;;;;5109897;28;20035;-78
2022/01/19 12:58:35;;;;;;;70.25;34.15;;;5.40;99.90;;;;;;5108872;27;20059;-78
2022/01/19 13:01:04;;;;;;;66.07;34.05;;;5.40;99.90;;;;;;5111749;28;20111;-77
2022/01/19 13:03:36;;;;;;;63.03;31.23;;;5.50;99.90;;;;;;5097358;28;20067;-77
2022/01/19 13:06:08;;;;;;;63.22;31.25;;;5.50;99.90;;;;;;5101137;28;20046;-78
2022/01/19 13:09:01;;;;;;;67.63;34.53;;;5.50;99.90;;;;;;5107582;28;20043;-79
2022/01/19 13:11:51;;;;;;;68.85;34.38;;;5.60;99.90;;;;;;5104393;28;20042;-78
2022/01/19 13:14:17;;;;;;;63.13;30.77;;;5.50;99.90;;;;;;5104315;28;20076;-78
2022/01/19 13:16:48;;;;;;;58.53;31.95;;;5.50;99.90;;;;;;5113120;28;20043;-80
2022/01/19 13:19:20;;;;;;;59.83;32.83;;;5.50;99.90;;;;;;5109843;28;20036;-78
2022/01/19 13:22:08;;;;;;;62.47;31.52;;;5.50;99.90;;;;;;5097266;28;20040;-78
2022/01/19 13:24:36;;;;;;;69.80;33.75;;;5.50;99.90;;;;;;5113865;28;20039;-78
2022/01/19 13:27:04;;;;;;;62.38;30.13;;;5.50;99.90;;;;;;5111047;28;20050;-77
2022/01/19 13:29:39;;;;;;;64.78;31.60;;;5.50;99.90;;;;;;5109361;28;20047;-78
2022/01/19 13:32:10;;;;;;;69.43;33.17;;;5.40;99.90;;;;;;5112990;28;20570;-78
2022/01/19 13:34:54;;;;;;;57.88;30.95;;;5.40;99.90;;;;;;5105646;28;20035;-78
2022/01/19 13:37:22;;;;;;;61.92;32.95;;;5.40;99.90;;;;;;5093916;28;20092;-78
2022/01/19 13:40:00;;;;;;;63.47;31.52;;;5.40;99.90;;;;;;5105988;28;20568;-78
2022/01/19 13:42:34;;;;;;;61.13;30.55;;;5.40;99.90;;;;;;5112931;28;20035;-78
2022/01/19 13:45:08;;;;;;;;;;;5.40;99.90;;;;;;5113652;28;20491;-78
2022/01/19 13:47:54;;;;;;;60.23;32.10;;;5.40;99.90;;;;;;5077547;27;1066786;-77
2022/01/19 13:50:20;;;;;;;59.20;30.60;;;5.40;99.90;;;;;;5099255;27;20050;-78
2022/01/19 13:52:45;;;;;;;64.57;31.85;;;5.40;99.90;;;;;;5099163;27;20427;-78
2022/01/19 13:55:22;;;;;;;61.38;31.50;;;5.30;99.90;;;;;;5116089;27;20038;-78
2022/01/19 13:57:48;;;;;;;63.72;31.52;;;5.40;99.90;;;;;;5115846;27;20130;-78
2022/01/19 14:00:17;;;;;;;61.40;30.10;;;5.30;99.90;;;;;;5115683;27;20118;-78
2022/01/19 14:02:59;;;;;;;65.28;30.85;;;5.30;99.90;;;;;;5115075;27;20043;-78
2022/01/19 14:05:37;;;;;;;56.40;29.35;;;5.30;99.90;;;;;;5098993;27;20119;-78
2022/01/19 14:08:03;;;;;;;61.83;29.90;;;5.30;99.90;;;;;;5116359;27;20054;-78
2022/01/19 14:10:40;;;;;;;58.50;30.13;;;5.20;99.90;;;;;;5110489;28;20044;-78
2022/01/19 14:13:26;;;;;;;63.78;29.45;;;5.20;99.90;;;;;;5112879;27;20042;-78
2022/01/19 14:15:53;;;;;;;61.20;28.65;;;5.20;99.90;;;;;;5110791;28;20074;-78